Lexington, SC (29071)

8:20 AM EDT on July 03, 2015 (GMT -0400)
Barre St & Third Ave | | Change Station
CLOSE
Current Station
Personal Weather Station
Location: Lexington, SC
Elevation: 420 ft
Nearby Weather Stations

Elev 420 ft 33.98 °N, 81.24 °W | Updated 6 minutes ago

Overcast
Overcast
73.6 °F
Feels Like 70 °F
N
1.7
Wind Variable Wind from SE

Today
High -- | Low -- °F
--% Chance of Precip.
Yesterday
High -- | Low -- °F
Precip. -- in
6:18 AM 8:40 PM
Full, 97% visible
Pressure 29.95 in
Visibility 10.0 miles
Clouds Scattered Clouds 1200 ft
Mostly Cloudy 15000 ft
Mostly Cloudy 20000 ft
Heat Index 70 °F
Dew Point 72 °F
Humidity 96%
Rainfall 0.00 in
Snow Depth Not available.
UV 1 out of 12
Pollen 2.10 out of 12
Air Quality Not available.
Flu Activity Not available.
METAR KCAE 031156Z 20009KT 10SM SCT012 BKN150 BKN200 24/21 A2996 RMK AO2 SLP141 70121 T02390206 10239 20217 53005

More Conditions Fewer Conditions

Pressure 29.95 in
Visibility 10.0 miles
Clouds Scattered Clouds 1200 ft
Mostly Cloudy 15000 ft
Mostly Cloudy 20000 ft
Heat Index 70 °F
Dew Point 72 °F
Humidity 96%
Rainfall 0.00 in
Snow Depth Not available.
UV 1 out of 12
Pollen 2.10 out of 12
Air Quality Not available.
Flu Activity Not available.
METAR KCAE 031156Z 20009KT 10SM SCT012 BKN150 BKN200 24/21 A2996 RMK AO2 SLP141 70121 T02390206 10239 20217 53005

More Conditions Fewer Conditions

10-Day Weather Forecast

×

Almanac

Astronomy

Jul. 03, 2015 Rise Set
Actual Time
Civil Twilight
Nautical Twilight
Astronomical Twilight
Moon
Length of Visible Light
Length of Day
Tomorrow will be .
, % of the Moon is Illuminated

Today's Extremes

State Highs State Lows

Community

WunderPhotos

Upload Photos

1,834,656 photos uploaded!

WunderBlogs® & News

Nearby

Air Quality

  Air Quality AQ Index Pollutant
Not available.

Snow Depth

Station Depth Elevation

Earthquake Activity

City Distance Mag. Time & Date
Minimum magnitude displayed is 2.5.

Coastal Water Temperatures

Place Temperature

Stations

Nearby Weather Stations

Station Location Temp. Windchill Dew Point Humidity Wind Precip. Elev Updated Type